This is the latest recevied weather packets stored in our database for station/object W4CKA. If no packets are shown the sender has not sent any weather packets the latest 10 day(s).
| Time | Temp. | Humidity | Pressure | Rain* | Wind** | Luminosity | Snow |
|---|---|---|---|---|---|---|---|
| 1787961190 | 24.44° C | 84% | 1059.5 hPa | 0 mm | - | 5 W/m² | - |
| 1787960586 | 25° C | 81% | 1059.6 hPa | 0 mm | - | 11 W/m² | - |
| 1787959984 | 26.11° C | 81% | 1059.7 hPa | 0 mm | - | 18 W/m² | - |
| 1787959380 | 26.11° C | 78% | 1059.6 hPa | 0 mm | - | 28 W/m² | - |
| 1787958775 | 27.22° C | 77% | 1059.4 hPa | 0 mm | - | 35 W/m² | - |
| 1787958173 | 27.78° C | 73% | 1059.3 hPa | 0 mm | - | 46 W/m² | - |
| 1787957572 | 27.78° C | 70% | 1059.4 hPa | 0 mm | - | 86 W/m² | - |
| 1787956967 | 28.33° C | 72% | 1059.4 hPa | 0 mm | - | 98 W/m² | - |
| 1787956362 | 28.33° C | 72% | 1059.3 hPa | 0 mm | - | 135 W/m² | - |
| 1787955759 | 28.89° C | 74% | 1059.3 hPa | 0 mm | - | 139 W/m² | - |
| 1787955158 | 28.89° C | 72% | 1059.3 hPa | 0 mm | - | 149 W/m² | - |
| 1787954556 | 28.89° C | 69% | 1059.2 hPa | 0 mm | - | 168 W/m² | - |
| 1787953956 | 28.89° C | 72% | 1059 hPa | 0 mm | - | 201 W/m² | - |
| 1787953356 | 28.89° C | 67% | 1059 hPa | 0 mm | - | 236 W/m² | - |
| 1787952753 | 28.33° C | 69% | 1059.2 hPa | 0 mm | - | 174 W/m² | - |
| 1787952151 | 28.89° C | 69% | 1059 hPa | 0 mm | - | 313 W/m² | - |
| 1787951551 | 28.89° C | 64% | 1058.9 hPa | 0 mm | - | 344 W/m² | - |
| 1787950948 | 28.89° C | 66% | 1059.1 hPa | 0 mm | - | 335 W/m² | - |
| 1787950346 | 28.33° C | 67% | 1059 hPa | 0 mm | - | 404 W/m² | - |
| 1787949743 | 28.89° C | 71% | 1059 hPa | 0 mm | - | 416 W/m² | - |
| 1787949143 | 27.78° C | 70% | 1059.2 hPa | 0 mm | - | 409 W/m² | - |
| 1787948539 | 30° C | 72% | 1058.9 hPa | 0 mm | - | 146 W/m² | - |
| 1787947939 | 27.78° C | 78% | 1059.3 hPa | 0 mm | - | 147 W/m² | - |
| 1787947339 | 28.89° C | 75% | 1059.2 hPa | 0 mm | - | 99 W/m² | - |
| 1787946737 | 29.44° C | 68% | 1059.2 hPa | 0 mm | - | 535 W/m² | - |
* Rain latest hour (hover to see other rain measurements)
** Current wind speed in m/s (hover to see current wind gust speed)